Pride Of Kent — MQCJ2 — position and weather

sailwx.info

Track history (hours):
 
Tides and Currents Weather Stations Pressure Air Temp Water Temp Dewpoint Dewpoint Depression Visibility Wind Speed Wind Dir Waves Ship Positions

Pride Of Kent

Operator: P & O Ferries

Last reported at 2015-Mar-07 01:34 UTC. Time now 2015-Mar-07 01:47 UTC.
Position N 51°05' E 001°36'.

Length 180 m; draft 6 m.

Type: Passenger vessel. MMSI: 232009000.

Date/timePositionNaut miles runAvg speedWind from/ knotsBaromVisibWave heightAir tempDewpointWater temp
2015-Mar-07 01:34N 51°05' E 001°36'1211.6
2015-Mar-07 00:33N 50°58' E 001°51'6 5.8
2015-Mar-06 23:33N 50°59' E 001°42'1616.2
2015-Mar-06 22:33N 51°07' E 001°20'0 0.3
2015-Mar-06 21:34N 51°07' E 001°20'1615.6
2015-Mar-06 20:34N 50°59' E 001°42'6 6.4
2015-Mar-06 19:33N 50°58' E 001°52'1110.7
2015-Mar-06 18:33N 50°60' E 001°35'12 8.8
2015-Mar-06 17:11N 51°07' E 001°20'812.8
2015-Mar-06 16:34N 51°05' E 001°32'1413.6
2015-Mar-06 15:33N 50°58' E 001°51'6 5.5
2015-Mar-06 14:31N 50°59' E 001°42'16 8.3
2015-Mar-06 12:33N 51°07' E 001°20'1413.5
2015-Mar-06 11:34N 51°02' E 001°40'8 7.8
2015-Mar-06 10:32N 50°58' E 001°51'9 9.0
2015-Mar-06 09:33N 50°59' E 001°37'13 6.7
2015-Mar-06 07:34N 51°07' E 001°20'1716.7
2015-Mar-06 06:33N 50°59' E 001°43'5 4.9
2015-Mar-06 05:33N 50°58' E 001°51'9 8.9
2015-Mar-06 04:33N 50°59' E 001°37'14 6.5
2015-Mar-06 02:28N 51°07' E 001°20'1213.4
2015-Mar-06 01:34N 51°02' E 001°37'9 9.2
2015-Mar-06 00:32N 50°58' E 001°51'6 6.5
2015-Mar-05 23:33N 50°58' E 001°41'1615.7
2015-Mar-05 22:33N 51°07' E 001°20'0 0.2
2015-Mar-05 21:32N 51°07' E 001°20'1616.1
2015-Mar-05 20:33N 50°59' E 001°42'6 6.3
2015-Mar-05 19:33N 50°58' E 001°52'8 8.2
2015-Mar-05 18:34N 50°59' E 001°39'1512.3
2015-Mar-05 17:23N 51°07' E 001°20'3 3.4
2015-Mar-05 16:33N 51°07' E 001°24'1818.2
2015-Mar-05 15:34N 50°58' E 001°50'0 0.4
2015-Mar-05 14:34N 50°58' E 001°51'1817.9
2015-Mar-05 13:33N 51°06' E 001°25'3 3.3
2015-Mar-05 12:32N 51°07' E 001°20'1414.5
2015-Mar-05 11:34N 51°01' E 001°40'7 7.2
2015-Mar-05 10:31N 50°58' E 001°51'8 8.2
2015-Mar-05 09:33N 50°59' E 001°38'1513.1
2015-Mar-05 08:26N 51°07' E 001°20'0 0.3
2015-Mar-05 07:33N 51°07' E 001°20'1515.4
2015-Mar-05 06:34N 50°60' E 001°42'6 6.1
2015-Mar-05 05:34N 50°58' E 001°51'8 8.3
2015-Mar-05 04:33N 50°60' E 001°38'14 6.8
2015-Mar-05 02:33N 51°07' E 001°20'1212.2
2015-Mar-05 01:33N 51°02' E 001°37'9 9.2
2015-Mar-05 00:32N 50°58' E 001°51'6 5.9
2015-Mar-04 23:34N 50°58' E 001°42'16 8.2
2015-Mar-04 21:34N 51°07' E 001°20'1616.0
2015-Mar-04 20:33N 50°59' E 001°42'6 6.1
2015-Mar-04 19:33N 50°58' E 001°52'9 9.0
2015-Mar-04 18:34N 50°59' E 001°38'12 5.8
2015-Mar-04 16:33N 51°07' E 001°24'1818.2
2015-Mar-04 15:34N 50°58' E 001°50'1 0.6
2015-Mar-04 14:33N 50°58' E 001°51'1717.2
2015-Mar-04 13:33N 51°05' E 001°26'4 3.8
2015-Mar-04 12:27N 51°07' E 001°20'1213.0
2015-Mar-04 11:33N 51°04' E 001°38'1010.0
2015-Mar-04 10:33N 50°58' E 001°51'6 5.8
2015-Mar-04 09:32N 50°59' E 001°42'16 8.1
2015-Mar-04 07:34N 51°07' E 001°20'1616.2
2015-Mar-04 06:33N 50°59' E 001°42'5 5.5
2015-Mar-04 05:34N 50°58' E 001°51'9 9.4
2015-Mar-04 04:33N 50°57' E 001°36'9 7.0
2015-Mar-04 03:13N 50°58' E 001°51'0 0.0
2015-Mar-04 02:25N 50°58' E 001°51'1213.9
2015-Mar-04 01:34N 51°04' E 001°34'12 9.3
2015-Mar-04 00:17N 50°58' E 001°51'3 4.1
2015-Mar-03 23:33N 50°58' E 001°46'1918.6
2015-Mar-03 22:33N 51°07' E 001°21'0 0.3
2015-Mar-03 21:33N 51°07' E 001°20'1615.9
2015-Mar-03 20:33N 50°60' E 001°42'6 5.6
2015-Mar-03 19:33N 50°58' E 001°51'1110.8
2015-Mar-03 18:33N 50°59' E 001°34'7 3.7
2015-Mar-03 16:33N 51°06' E 001°28'1716.2
2015-Mar-03 15:32N 50°58' E 001°51'3 2.7
2015-Mar-03 14:33N 50°58' E 001°47'1918.9
2015-Mar-03 13:33N 51°07' E 001°21'0 0.3
2015-Mar-03 12:33N 51°07' E 001°20'1615.8
2015-Mar-03 11:33N 51°00' E 001°43'6 4.8
2015-Mar-03 10:21N 50°58' E 001°51'910.9
2015-Mar-03 09:33N 51°00' E 001°38'13 6.4
2015-Mar-03 07:33N 51°07' E 001°20'1515.3
2015-Mar-03 06:33N 50°60' E 001°41'6 6.4
2015-Mar-03 05:33N 50°58' E 001°51'8 7.8
2015-Mar-03 04:33N 50°58' E 001°39'15 7.2
2015-Mar-03 02:29N 51°07' E 001°20'1415.5
2015-Mar-03 01:34N 51°01' E 001°40'7 7.2
2015-Mar-03 00:33N 50°58' E 001°51'1212.4
2015-Mar-02 23:33N 51°01' E 001°32'10 6.9
2015-Mar-02 22:09N 51°07' E 001°20'712.0
2015-Mar-02 21:33N 51°06' E 001°31'1514.8
2015-Mar-02 20:33N 50°58' E 001°51'2 2.3
2015-Mar-02 19:33N 50°58' E 001°47'1818.0
2015-Mar-02 18:34N 51°07' E 001°22'1 1.3
2015-Mar-02 17:31N 51°07' E 001°20'1516.0
2015-Mar-02 16:33N 51°00' E 001°42'6 6.4
2015-Mar-02 15:33N 50°58' E 001°51'3 3.4
2015-Mar-02 14:34N 50°58' E 001°46'1717.2
2015-Mar-02 13:33N 51°07' E 001°22'1 1.4
2015-Mar-02 12:33N 51°07' E 001°20'1413.7
2015-Mar-02 11:33N 51°01' E 001°39'8 6.6
2015-Mar-02 10:21N 50°58' E 001°51'810.0
2015-Mar-02 09:33N 50°59' E 001°38'14 7.1
2015-Mar-02 07:34N 51°07' E 001°20'1514.8
2015-Mar-02 06:33N 50°60' E 001°41'7 6.8
2015-Mar-02 05:34N 50°58' E 001°51'6 5.8
2015-Mar-02 04:33N 50°58' E 001°42'1616.2
2015-Mar-02 03:33N 51°07' E 001°20'0 0.0
2015-Mar-02 02:18N 51°07' E 001°20'1012.8
2015-Mar-02 01:34N 51°03' E 001°34'1211.7
2015-Mar-02 00:32N 50°58' E 001°51'3 3.3
2015-Mar-01 23:33N 50°58' E 001°46'1818.4
2015-Mar-01 22:33N 51°07' E 001°21'2 1.9
2015-Mar-01 21:33N 51°07' E 001°24'1716.8
2015-Mar-01 20:34N 50°58' E 001°46'3 3.4
2015-Mar-01 19:33N 50°58' E 001°52'1212.3
2015-Mar-01 18:33N 51°01' E 001°33'10 8.2
2015-Mar-01 17:20N 51°07' E 001°20'4 5.6
2015-Mar-01 16:34N 51°07' E 001°27'1717.1
2015-Mar-01 15:33N 50°58' E 001°51'1 1.2
2015-Mar-01 14:33N 50°58' E 001°49'1515.5
2015-Mar-01 13:33N 51°06' E 001°27'5 4.1
2015-Mar-01 12:25N 51°07' E 001°20'1012.2
2015-Mar-01 11:34N 51°03' E 001°35'1111.2
2015-Mar-01 10:33N 50°58' E 001°51'6 6.4
2015-Mar-01 09:33N 50°59' E 001°41'16 7.8
2015-Mar-01 07:32N 51°07' E 001°20'1515.2
2015-Mar-01 06:34N 51°01' E 001°41'7 6.6
2015-Mar-01 05:33N 50°58' E 001°51'1010.3
2015-Mar-01 04:33N 51°01' E 001°35'1210.4
2015-Mar-01 03:26N 51°07' E 001°20'9 9.7
2015-Mar-01 02:33N 51°05' E 001°33'1313.0
2015-Mar-01 01:33N 50°58' E 001°51'2 1.9
2015-Mar-01 00:33N 50°58' E 001°48'1918.8
2015-Feb-28 23:34N 51°07' E 001°22'1 1.0
2015-Feb-28 22:33N 51°07' E 001°20'1616.4
2015-Feb-28 21:34N 50°59' E 001°43'6 5.7
2015-Feb-28 20:33N 50°58' E 001°52'1313.0
2015-Feb-28 19:33N 51°02' E 001°32'7 3.7
2015-Feb-28 17:33N 51°07' E 001°23'1717.1
2015-Feb-28 16:34N 50°58' E 001°47'3 2.7
2015-Feb-28 15:33N 50°58' E 001°51'9 8.6
2015-Feb-28 14:34N 50°59' E 001°37'14 6.8
2015-Feb-28 12:33N 51°07' E 001°20'1615.6
2015-Feb-28 11:33N 50°59' E 001°42'6 5.9
2015-Feb-28 10:33N 50°58' E 001°51'1010.3
2015-Feb-28 09:33N 50°59' E 001°35'12 5.9
2015-Feb-28 07:33N 51°07' E 001°21'1616.2
2015-Feb-28 06:34N 50°59' E 001°43'5 5.0
2015-Feb-28 05:33N 50°58' E 001°51'6 6.3
2015-Feb-28 04:34N 50°58' E 001°41'1616.0
2015-Feb-28 03:33N 51°07' E 001°20'0 0.0
2015-Feb-28 02:15N 51°07' E 001°20'913.3
2015-Feb-28 01:33N 51°03' E 001°33'1212.4
2015-Feb-28 00:33N 50°58' E 001°51'5 5.2
2015-Feb-27 23:33N 50°58' E 001°43'1715.6
2015-Feb-27 22:28N 51°07' E 001°20'1 1.4
2015-Feb-27 21:34N 51°07' E 001°22'1717.2
2015-Feb-27 20:34N 50°58' E 001°45'4 4.0
2015-Feb-27 19:33N 50°58' E 001°52'1615.6
2015-Feb-27 18:33N 51°03' E 001°28'7 5.5
2015-Feb-27 17:22N 51°07' E 001°20'1315.5
2015-Feb-27 16:34N 51°01' E 001°37'9 9.1
2015-Feb-27 15:33N 50°58' E 001°51'8 8.0
2015-Feb-27 14:34N 50°58' E 001°38'1010.2
2015-Feb-27 13:34N 51°05' E 001°27'5 4.3
2015-Feb-27 12:27N 51°07' E 001°20'1415.6
2015-Feb-27 11:34N 51°01' E 001°40'8 7.7
2015-Feb-27 10:33N 50°58' E 001°51'8 8.1
2015-Feb-27 09:33N 50°58' E 001°38'14 7.1
2015-Feb-27 07:33N 51°07' E 001°20'1717.6
2015-Feb-27 06:33N 50°58' E 001°44'4 4.2
2015-Feb-27 05:31N 50°58' E 001°51'9 9.0
2015-Feb-27 04:33N 50°60' E 001°37'11 5.5
2015-Feb-27 02:33N 51°07' E 001°25'1717.3
2015-Feb-27 01:33N 50°58' E 001°48'2 1.6
2015-Feb-27 00:31N 50°58' E 001°51'1313.3
2015-Feb-26 23:34N 51°03' E 001°32'9 6.5
2015-Feb-26 22:12N 51°07' E 001°20'914.3
2015-Feb-26 21:34N 51°03' E 001°33'1312.7
2015-Feb-26 20:34N 50°58' E 001°52'0 0.1
2015-Feb-26 19:33N 50°58' E 001°52'1717.3
2015-Feb-26 18:33N 51°04' E 001°26'5 3.8
2015-Feb-26 17:19N 51°07' E 001°20'1114.8
2015-Feb-26 16:33N 51°02' E 001°36'10 9.3
2015-Feb-26 15:27N 50°58' E 001°51'3 3.2
2015-Feb-26 14:33N 50°58' E 001°46'1818.5
2015-Feb-26 13:33N 51°07' E 001°21'1 0.7
2015-Feb-26 12:31N 51°07' E 001°20'1717.2
2015-Feb-26 11:33N 50°59' E 001°43'5 5.1
2015-Feb-26 10:33N 50°58' E 001°51'9 9.3
2015-Feb-26 09:33N 50°59' E 001°36'13 6.3
2015-Feb-26 07:33N 51°07' E 001°20'1717.1
2015-Feb-26 06:34N 50°59' E 001°44'5 4.6
2015-Feb-26 05:33N 50°58' E 001°51'8 8.3
2015-Feb-26 04:33N 50°57' E 001°38'1514.5
2015-Feb-26 03:32N 51°07' E 001°20'0 0.2
2015-Feb-26 02:31N 51°07' E 001°20'1717.5
2015-Feb-26 01:33N 50°59' E 001°43'5 4.9
2015-Feb-26 00:33N 50°58' E 001°51'9 9.0
2015-Feb-25 23:34N 50°59' E 001°37'1413.2
2015-Feb-25 22:31N 51°07' E 001°20'3 2.8
2015-Feb-25 21:33N 51°07' E 001°24'1918.5
2015-Feb-25 20:33N 50°58' E 001°51'1 0.7
2015-Feb-25 19:34N 50°58' E 001°52'1413.8
2015-Feb-25 18:34N 51°03' E 001°31'7 5.2
2015-Feb-25 17:12N 51°07' E 001°22'710.5
2015-Feb-25 16:33N 51°05' E 001°32'1413.5
2015-Feb-25 15:33N 50°58' E 001°51'2 1.6
2015-Feb-25 14:33N 50°58' E 001°48'1817.8
2015-Feb-25 13:33N 51°06' E 001°23'2 2.1
2015-Feb-25 12:26N 51°07' E 001°20'1416.1
2015-Feb-25 11:34N 51°00' E 001°39'8 7.6
2015-Feb-25 10:34N 50°58' E 001°51'8 8.1
2015-Feb-25 09:33N 50°59' E 001°38'14 6.9
2015-Feb-25 07:32N 51°07' E 001°20'1515.8
2015-Feb-25 06:34N 50°60' E 001°42'6 5.8
2015-Feb-25 05:30N 50°58' E 001°51'8 8.2
2015-Feb-25 04:31N 50°59' E 001°38'1414.6
2015-Feb-25 03:34N 51°07' E 001°20'0 0.0
2015-Feb-25 02:22N 51°07' E 001°20'  
Track history (hours):
 
Tides and Currents Weather Stations Pressure Air Temp Water Temp Dewpoint Dewpoint Depression Visibility Wind Speed Wind Dir Waves Ship Positions

Pride Of Kent

Operator: P & O Ferries

Last reported at 2015-Mar-07 01:34 UTC. Time now 2015-Mar-07 01:47 UTC.
Position N 51°05' E 001°36'.

Length 180 m; draft 6 m.

Type: Passenger vessel. MMSI: 232009000.

Date/timePositionNaut miles runAvg speedWind from/ knotsBaromVisibWave heightAir tempDewpointWater temp
2015-Mar-07 01:34N 51°05' E 001°36'1211.6
2015-Mar-07 00:33N 50°58' E 001°51'6 5.8
2015-Mar-06 23:33N 50°59' E 001°42'1616.2
2015-Mar-06 22:33N 51°07' E 001°20'0 0.3
2015-Mar-06 21:34N 51°07' E 001°20'1615.6
2015-Mar-06 20:34N 50°59' E 001°42'6 6.4
2015-Mar-06 19:33N 50°58' E 001°52'1110.7
2015-Mar-06 18:33N 50°60' E 001°35'12 8.8
2015-Mar-06 17:11N 51°07' E 001°20'812.8
2015-Mar-06 16:34N 51°05' E 001°32'1413.6
2015-Mar-06 15:33N 50°58' E 001°51'6 5.5
2015-Mar-06 14:31N 50°59' E 001°42'16 8.3
2015-Mar-06 12:33N 51°07' E 001°20'1413.5
2015-Mar-06 11:34N 51°02' E 001°40'8 7.8
2015-Mar-06 10:32N 50°58' E 001°51'9 9.0
2015-Mar-06 09:33N 50°59' E 001°37'13 6.7
2015-Mar-06 07:34N 51°07' E 001°20'1716.7
2015-Mar-06 06:33N 50°59' E 001°43'5 4.9
2015-Mar-06 05:33N 50°58' E 001°51'9 8.9
2015-Mar-06 04:33N 50°59' E 001°37'14 6.5
2015-Mar-06 02:28N 51°07' E 001°20'1213.4
2015-Mar-06 01:34N 51°02' E 001°37'9 9.2
2015-Mar-06 00:32N 50°58' E 001°51'6 6.5
2015-Mar-05 23:33N 50°58' E 001°41'1615.7
2015-Mar-05 22:33N 51°07' E 001°20'0 0.2
2015-Mar-05 21:32N 51°07' E 001°20'1616.1
2015-Mar-05 20:33N 50°59' E 001°42'6 6.3
2015-Mar-05 19:33N 50°58' E 001°52'8 8.2
2015-Mar-05 18:34N 50°59' E 001°39'1512.3
2015-Mar-05 17:23N 51°07' E 001°20'3 3.4
2015-Mar-05 16:33N 51°07' E 001°24'1818.2
2015-Mar-05 15:34N 50°58' E 001°50'0 0.4
2015-Mar-05 14:34N 50°58' E 001°51'1817.9
2015-Mar-05 13:33N 51°06' E 001°25'3 3.3
2015-Mar-05 12:32N 51°07' E 001°20'1414.5
2015-Mar-05 11:34N 51°01' E 001°40'7 7.2
2015-Mar-05 10:31N 50°58' E 001°51'8 8.2
2015-Mar-05 09:33N 50°59' E 001°38'1513.1
2015-Mar-05 08:26N 51°07' E 001°20'0 0.3
2015-Mar-05 07:33N 51°07' E 001°20'1515.4
2015-Mar-05 06:34N 50°60' E 001°42'6 6.1
2015-Mar-05 05:34N 50°58' E 001°51'8 8.3
2015-Mar-05 04:33N 50°60' E 001°38'14 6.8
2015-Mar-05 02:33N 51°07' E 001°20'1212.2
2015-Mar-05 01:33N 51°02' E 001°37'9 9.2
2015-Mar-05 00:32N 50°58' E 001°51'6 5.9
2015-Mar-04 23:34N 50°58' E 001°42'16 8.2
2015-Mar-04 21:34N 51°07' E 001°20'1616.0
2015-Mar-04 20:33N 50°59' E 001°42'6 6.1
2015-Mar-04 19:33N 50°58' E 001°52'9 9.0
2015-Mar-04 18:34N 50°59' E 001°38'12 5.8
2015-Mar-04 16:33N 51°07' E 001°24'1818.2
2015-Mar-04 15:34N 50°58' E 001°50'1 0.6
2015-Mar-04 14:33N 50°58' E 001°51'1717.2
2015-Mar-04 13:33N 51°05' E 001°26'4 3.8
2015-Mar-04 12:27N 51°07' E 001°20'1213.0
2015-Mar-04 11:33N 51°04' E 001°38'1010.0
2015-Mar-04 10:33N 50°58' E 001°51'6 5.8
2015-Mar-04 09:32N 50°59' E 001°42'16 8.1
2015-Mar-04 07:34N 51°07' E 001°20'1616.2
2015-Mar-04 06:33N 50°59' E 001°42'5 5.5
2015-Mar-04 05:34N 50°58' E 001°51'9 9.4
2015-Mar-04 04:33N 50°57' E 001°36'9 7.0
2015-Mar-04 03:13N 50°58' E 001°51'0 0.0
2015-Mar-04 02:25N 50°58' E 001°51'1213.9
2015-Mar-04 01:34N 51°04' E 001°34'12 9.3
2015-Mar-04 00:17N 50°58' E 001°51'3 4.1
2015-Mar-03 23:33N 50°58' E 001°46'1918.6
2015-Mar-03 22:33N 51°07' E 001°21'0 0.3
2015-Mar-03 21:33N 51°07' E 001°20'1615.9
2015-Mar-03 20:33N 50°60' E 001°42'6 5.6
2015-Mar-03 19:33N 50°58' E 001°51'1110.8
2015-Mar-03 18:33N 50°59' E 001°34'7 3.7
2015-Mar-03 16:33N 51°06' E 001°28'1716.2
2015-Mar-03 15:32N 50°58' E 001°51'3 2.7
2015-Mar-03 14:33N 50°58' E 001°47'1918.9
2015-Mar-03 13:33N 51°07' E 001°21'0 0.3
2015-Mar-03 12:33N 51°07' E 001°20'1615.8
2015-Mar-03 11:33N 51°00' E 001°43'6 4.8
2015-Mar-03 10:21N 50°58' E 001°51'910.9
2015-Mar-03 09:33N 51°00' E 001°38'13 6.4
2015-Mar-03 07:33N 51°07' E 001°20'1515.3
2015-Mar-03 06:33N 50°60' E 001°41'6 6.4
2015-Mar-03 05:33N 50°58' E 001°51'8 7.8
2015-Mar-03 04:33N 50°58' E 001°39'15 7.2
2015-Mar-03 02:29N 51°07' E 001°20'1415.5
2015-Mar-03 01:34N 51°01' E 001°40'7 7.2
2015-Mar-03 00:33N 50°58' E 001°51'1212.4
2015-Mar-02 23:33N 51°01' E 001°32'10 6.9
2015-Mar-02 22:09N 51°07' E 001°20'712.0
2015-Mar-02 21:33N 51°06' E 001°31'1514.8
2015-Mar-02 20:33N 50°58' E 001°51'2 2.3
2015-Mar-02 19:33N 50°58' E 001°47'1818.0
2015-Mar-02 18:34N 51°07' E 001°22'1 1.3
2015-Mar-02 17:31N 51°07' E 001°20'1516.0
2015-Mar-02 16:33N 51°00' E 001°42'6 6.4
2015-Mar-02 15:33N 50°58' E 001°51'3 3.4
2015-Mar-02 14:34N 50°58' E 001°46'1717.2
2015-Mar-02 13:33N 51°07' E 001°22'1 1.4
2015-Mar-02 12:33N 51°07' E 001°20'1413.7
2015-Mar-02 11:33N 51°01' E 001°39'8 6.6
2015-Mar-02 10:21N 50°58' E 001°51'810.0
2015-Mar-02 09:33N 50°59' E 001°38'14 7.1
2015-Mar-02 07:34N 51°07' E 001°20'1514.8
2015-Mar-02 06:33N 50°60' E 001°41'7 6.8
2015-Mar-02 05:34N 50°58' E 001°51'6 5.8
2015-Mar-02 04:33N 50°58' E 001°42'1616.2
2015-Mar-02 03:33N 51°07' E 001°20'0 0.0
2015-Mar-02 02:18N 51°07' E 001°20'1012.8
2015-Mar-02 01:34N 51°03' E 001°34'1211.7
2015-Mar-02 00:32N 50°58' E 001°51'3 3.3
2015-Mar-01 23:33N 50°58' E 001°46'1818.4
2015-Mar-01 22:33N 51°07' E 001°21'2 1.9
2015-Mar-01 21:33N 51°07' E 001°24'1716.8
2015-Mar-01 20:34N 50°58' E 001°46'3 3.4
2015-Mar-01 19:33N 50°58' E 001°52'1212.3
2015-Mar-01 18:33N 51°01' E 001°33'10 8.2
2015-Mar-01 17:20N 51°07' E 001°20'4 5.6
2015-Mar-01 16:34N 51°07' E 001°27'1717.1
2015-Mar-01 15:33N 50°58' E 001°51'1 1.2
2015-Mar-01 14:33N 50°58' E 001°49'1515.5
2015-Mar-01 13:33N 51°06' E 001°27'5 4.1
2015-Mar-01 12:25N 51°07' E 001°20'1012.2
2015-Mar-01 11:34N 51°03' E 001°35'1111.2
2015-Mar-01 10:33N 50°58' E 001°51'6 6.4
2015-Mar-01 09:33N 50°59' E 001°41'16 7.8
2015-Mar-01 07:32N 51°07' E 001°20'1515.2
2015-Mar-01 06:34N 51°01' E 001°41'7 6.6
2015-Mar-01 05:33N 50°58' E 001°51'1010.3
2015-Mar-01 04:33N 51°01' E 001°35'1210.4
2015-Mar-01 03:26N 51°07' E 001°20'9 9.7
2015-Mar-01 02:33N 51°05' E 001°33'1313.0
2015-Mar-01 01:33N 50°58' E 001°51'2 1.9
2015-Mar-01 00:33N 50°58' E 001°48'1918.8
2015-Feb-28 23:34N 51°07' E 001°22'1 1.0
2015-Feb-28 22:33N 51°07' E 001°20'1616.4
2015-Feb-28 21:34N 50°59' E 001°43'6 5.7
2015-Feb-28 20:33N 50°58' E 001°52'1313.0
2015-Feb-28 19:33N 51°02' E 001°32'7 3.7
2015-Feb-28 17:33N 51°07' E 001°23'1717.1
2015-Feb-28 16:34N 50°58' E 001°47'3 2.7
2015-Feb-28 15:33N 50°58' E 001°51'9 8.6
2015-Feb-28 14:34N 50°59' E 001°37'14 6.8
2015-Feb-28 12:33N 51°07' E 001°20'1615.6
2015-Feb-28 11:33N 50°59' E 001°42'6 5.9
2015-Feb-28 10:33N 50°58' E 001°51'1010.3
2015-Feb-28 09:33N 50°59' E 001°35'12 5.9
2015-Feb-28 07:33N 51°07' E 001°21'1616.2
2015-Feb-28 06:34N 50°59' E 001°43'5 5.0
2015-Feb-28 05:33N 50°58' E 001°51'6 6.3
2015-Feb-28 04:34N 50°58' E 001°41'1616.0
2015-Feb-28 03:33N 51°07' E 001°20'0 0.0
2015-Feb-28 02:15N 51°07' E 001°20'913.3
2015-Feb-28 01:33N 51°03' E 001°33'1212.4
2015-Feb-28 00:33N 50°58' E 001°51'5 5.2
2015-Feb-27 23:33N 50°58' E 001°43'1715.6
2015-Feb-27 22:28N 51°07' E 001°20'1 1.4
2015-Feb-27 21:34N 51°07' E 001°22'1717.2
2015-Feb-27 20:34N 50°58' E 001°45'4 4.0
2015-Feb-27 19:33N 50°58' E 001°52'1615.6
2015-Feb-27 18:33N 51°03' E 001°28'7 5.5
2015-Feb-27 17:22N 51°07' E 001°20'1315.5
2015-Feb-27 16:34N 51°01' E 001°37'9 9.1
2015-Feb-27 15:33N 50°58' E 001°51'8 8.0
2015-Feb-27 14:34N 50°58' E 001°38'1010.2
2015-Feb-27 13:34N 51°05' E 001°27'5 4.3
2015-Feb-27 12:27N 51°07' E 001°20'1415.6
2015-Feb-27 11:34N 51°01' E 001°40'8 7.7
2015-Feb-27 10:33N 50°58' E 001°51'8 8.1
2015-Feb-27 09:33N 50°58' E 001°38'14 7.1
2015-Feb-27 07:33N 51°07' E 001°20'1717.6
2015-Feb-27 06:33N 50°58' E 001°44'4 4.2
2015-Feb-27 05:31N 50°58' E 001°51'9 9.0
2015-Feb-27 04:33N 50°60' E 001°37'11 5.5
2015-Feb-27 02:33N 51°07' E 001°25'1717.3
2015-Feb-27 01:33N 50°58' E 001°48'2 1.6
2015-Feb-27 00:31N 50°58' E 001°51'1313.3
2015-Feb-26 23:34N 51°03' E 001°32'9 6.5
2015-Feb-26 22:12N 51°07' E 001°20'914.3
2015-Feb-26 21:34N 51°03' E 001°33'1312.7
2015-Feb-26 20:34N 50°58' E 001°52'0 0.1
2015-Feb-26 19:33N 50°58' E 001°52'1717.3
2015-Feb-26 18:33N 51°04' E 001°26'5 3.8
2015-Feb-26 17:19N 51°07' E 001°20'1114.8
2015-Feb-26 16:33N 51°02' E 001°36'10 9.3
2015-Feb-26 15:27N 50°58' E 001°51'3 3.2
2015-Feb-26 14:33N 50°58' E 001°46'1818.5
2015-Feb-26 13:33N 51°07' E 001°21'1 0.7
2015-Feb-26 12:31N 51°07' E 001°20'1717.2
2015-Feb-26 11:33N 50°59' E 001°43'5 5.1
2015-Feb-26 10:33N 50°58' E 001°51'9 9.3
2015-Feb-26 09:33N 50°59' E 001°36'13 6.3
2015-Feb-26 07:33N 51°07' E 001°20'1717.1
2015-Feb-26 06:34N 50°59' E 001°44'5 4.6
2015-Feb-26 05:33N 50°58' E 001°51'8 8.3
2015-Feb-26 04:33N 50°57' E 001°38'1514.5
2015-Feb-26 03:32N 51°07' E 001°20'0 0.2
2015-Feb-26 02:31N 51°07' E 001°20'1717.5
2015-Feb-26 01:33N 50°59' E 001°43'5 4.9
2015-Feb-26 00:33N 50°58' E 001°51'9 9.0
2015-Feb-25 23:34N 50°59' E 001°37'1413.2
2015-Feb-25 22:31N 51°07' E 001°20'3 2.8
2015-Feb-25 21:33N 51°07' E 001°24'1918.5
2015-Feb-25 20:33N 50°58' E 001°51'1 0.7
2015-Feb-25 19:34N 50°58' E 001°52'1413.8
2015-Feb-25 18:34N 51°03' E 001°31'7 5.2
2015-Feb-25 17:12N 51°07' E 001°22'710.5
2015-Feb-25 16:33N 51°05' E 001°32'1413.5
2015-Feb-25 15:33N 50°58' E 001°51'2 1.6
2015-Feb-25 14:33N 50°58' E 001°48'1817.8
2015-Feb-25 13:33N 51°06' E 001°23'2 2.1
2015-Feb-25 12:26N 51°07' E 001°20'1416.1
2015-Feb-25 11:34N 51°00' E 001°39'8 7.6
2015-Feb-25 10:34N 50°58' E 001°51'8 8.1
2015-Feb-25 09:33N 50°59' E 001°38'14 6.9
2015-Feb-25 07:32N 51°07' E 001°20'1515.8
2015-Feb-25 06:34N 50°60' E 001°42'6 5.8
2015-Feb-25 05:30N 50°58' E 001°51'8 8.2
2015-Feb-25 04:31N 50°59' E 001°38'1414.6
2015-Feb-25 03:34N 51°07' E 001°20'0 0.0
2015-Feb-25 02:22N 51°07' E 001°20'  

Dump ship's entire track history